Time;durP1;ratioP1;P1;durP2;ratioP2;P2;SDS_P1;SDS_P2;PMS_P1;PMS_P2;Temp;Humidity;BMP_temperature;BMP_pressure;BME280_temperature;BME280_humidity;BME280_pressure;Samples;Min_cycle;Max_cycle;Signal;HPM_P1;HPM_P2
2021/12/04 00:01:59;;;;;;;10.63;6.58;;;;;;;3.62;100.00;99654.22;1659625;86;21236;-81
2021/12/04 00:05:05;;;;;;;9.55;6.97;;;;;;;3.52;100.00;99647.99;1634060;88;21293;-81
2021/12/04 00:08:11;;;;;;;9.30;5.78;;;;;;;3.46;100.00;99639.12;1634455;88;21296;-81
2021/12/04 00:11:16;;;;;;;8.70;5.87;;;;;;;3.43;100.00;99653.78;1634260;88;21888;-81
2021/12/04 00:14:22;;;;;;;6.37;4.87;;;;;;;3.36;100.00;99653.17;1633471;88;21327;-81
2021/12/04 00:17:27;;;;;;;6.90;5.35;;;;;;;3.32;100.00;99656.66;1636928;85;21891;-81
2021/12/04 00:20:32;;;;;;;7.80;6.17;;;;;;;3.28;100.00;99657.95;1661259;86;21715;-81
2021/12/04 00:23:38;;;;;;;6.10;4.58;;;;;;;3.27;100.00;99662.50;1651540;85;21349;-80
2021/12/04 00:26:43;;;;;;;7.67;5.12;;;;;;;3.26;100.00;99674.32;1652357;85;21225;-81
2021/12/04 00:29:50;;;;;;;5.62;4.58;;;;;;;3.24;100.00;99669.55;1668340;86;21266;-81
2021/12/04 00:33:02;;;;;;;6.50;4.60;;;;;;;3.22;100.00;99671.55;1661836;86;21351;-81
2021/12/04 00:36:05;;;;;;;6.53;4.65;;;;;;;3.21;100.00;99669.00;1660252;86;21312;-81
2021/12/04 00:49:21;;;;;;;3.58;3.08;;;;;;;3.02;100.00;99673.44;1653208;86;21943;-81
2021/12/04 00:52:26;;;;;;;3.62;2.77;;;;;;;2.99;100.00;99698.53;1642869;87;21837;-81
2021/12/04 00:55:32;;;;;;;4.15;2.70;;;;;;;2.93;100.00;99689.65;1644989;87;21350;-81
2021/12/04 00:58:37;;;;;;;2.67;2.40;;;;;;;2.87;100.00;99687.03;1643471;87;21941;-81
2021/12/04 01:01:44;;;;;;;3.02;2.62;;;;;;;2.84;100.00;99693.20;1645050;87;21857;-81
2021/12/04 01:04:51;;;;;;;2.98;2.58;;;;;;;2.81;100.00;99705.13;1615654;88;21213;-81
2021/12/04 01:07:56;;;;;;;2.50;2.30;;;;;;;2.79;100.00;99695.83;1620438;88;21352;-80
2021/12/04 01:11:02;;;;;;;3.40;2.65;;;;;;;2.82;100.00;99691.97;1615444;88;21296;-81
2021/12/04 01:14:06;;;;;;;3.15;2.85;;;;;;;2.83;100.00;99695.55;1617255;88;21828;-80
2021/12/04 01:17:12;;;;;;;4.75;3.15;;;;;;;2.79;100.00;99694.48;1616458;87;21343;-81
2021/12/04 01:20:18;;;;;;;3.12;2.80;;;;;;;2.81;100.00;99710.53;1631781;87;21623;-81
2021/12/04 01:23:24;;;;;;;2.83;2.60;;;;;;;2.80;100.00;99714.23;1637117;87;21335;-81
2021/12/04 01:26:28;;;;;;;3.47;3.15;;;;;;;2.81;100.00;99705.13;1637774;87;21217;-81
2021/12/04 01:29:34;;;;;;;3.17;2.50;;;;;;;2.80;100.00;99694.83;1636613;87;21229;-81
2021/12/04 01:32:39;;;;;;;3.60;3.02;;;;;;;2.79;100.00;99693.12;1636891;87;21419;-81
2021/12/04 01:35:44;;;;;;;4.28;3.00;;;;;;;2.78;100.00;99690.58;1638865;87;21376;-81
2021/12/04 01:38:50;;;;;;;3.65;3.08;;;;;;;2.75;100.00;99702.50;1642782;87;21757;-81
2021/12/04 01:41:54;;;;;;;4.25;3.30;;;;;;;2.73;100.00;99720.70;1644253;87;21272;-81
2021/12/04 01:44:59;;;;;;;3.67;2.92;;;;;;;2.70;100.00;99709.33;1644279;87;21663;-81
2021/12/04 01:48:08;;;;;;;3.77;3.30;;;;;;;2.67;100.00;99730.70;1646904;86;21278;-81
2021/12/04 01:51:14;;;;;;;3.52;2.90;;;;;;;2.66;100.00;99739.80;1646815;87;21346;-80
2021/12/04 01:54:20;;;;;;;3.35;3.05;;;;;;;2.65;100.00;99734.05;1644935;87;21371;-81
2021/12/04 01:57:26;;;;;;;6.62;3.47;;;;;;;2.66;100.00;99746.55;1645720;87;21328;-81
2021/12/04 02:00:33;;;;;;;4.28;2.85;;;;;;;2.72;100.00;99748.69;1647998;86;21359;-80
2021/12/04 02:03:39;;;;;;;4.00;3.02;;;;;;;2.80;100.00;99739.39;1650731;87;21324;-81
2021/12/04 02:06:44;;;;;;;4.53;3.85;;;;;;;2.83;100.00;99728.82;1645598;87;21380;-80
2021/12/04 02:09:51;;;;;;;4.83;3.42;;;;;;;2.84;100.00;99748.08;1644511;87;21612;-80
2021/12/04 02:12:56;;;;;;;4.15;3.35;;;;;;;2.83;100.00;99767.98;1648620;87;21340;-81
2021/12/04 02:16:03;;;;;;;3.62;3.10;;;;;;;2.81;100.00;99776.20;1645158;86;21316;-81
2021/12/04 02:19:09;;;;;;;4.12;3.70;;;;;;;2.87;100.00;99775.29;1643962;87;21827;-80
2021/12/04 02:22:14;;;;;;;5.30;3.92;;;;;;;2.92;100.00;99760.89;1645208;87;21285;-80
2021/12/04 02:25:19;;;;;;;5.53;3.90;;;;;;;2.95;99.89;99774.09;1646044;87;21285;-81
2021/12/04 02:28:25;;;;;;;5.05;3.80;;;;;;;2.96;99.71;99790.66;1645130;87;21328;-81
2021/12/04 02:31:30;;;;;;;5.20;4.12;;;;;;;2.97;99.53;99802.70;1645329;87;21324;-81
2021/12/04 02:34:38;;;;;;;9.60;4.28;;;;;;;2.99;99.21;99813.36;1644455;87;21240;-81
2021/12/04 02:37:43;;;;;;;5.47;4.12;;;;;;;3.01;99.00;99825.74;1645287;87;21356;-80
2021/12/04 02:40:49;;;;;;;8.48;4.95;;;;;;;2.99;98.65;99843.08;1644188;87;21372;-80
2021/12/04 02:43:55;;;;;;;6.55;4.90;;;;;;;2.95;98.58;99842.98;1644125;87;21694;-80
2021/12/04 02:47:00;;;;;;;5.37;4.50;;;;;;;2.92;98.75;99845.48;1645261;87;21683;-80
2021/12/04 02:50:07;;;;;;;5.35;4.55;;;;;;;2.95;98.84;99851.09;1623237;88;21392;-81
2021/12/04 02:53:12;;;;;;;5.72;4.60;;;;;;;2.94;98.74;99857.50;1623457;88;21334;-80
2021/12/04 02:56:18;;;;;;;5.25;4.37;;;;;;;2.93;98.65;99860.70;1625520;88;21332;-81
2021/12/04 02:59:23;;;;;;;6.42;4.20;;;;;;;2.90;98.66;99854.21;1632870;87;21337;-81
2021/12/04 03:02:28;;;;;;;5.97;4.58;;;;;;;2.87;98.53;99844.17;1636903;85;21206;-80
2021/12/04 03:05:34;;;;;;;5.70;4.80;;;;;;;2.84;98.61;99855.27;1672666;85;21890;-80
2021/12/04 03:08:39;;;;;;;7.45;4.62;;;;;;;2.81;98.52;99837.48;1665724;85;21946;-81
2021/12/04 03:11:45;;;;;;;5.58;5.03;;;;;;;2.78;98.65;99833.73;1668843;85;21261;-80
2021/12/04 03:14:51;;;;;;;8.28;4.53;;;;;;;2.73;98.92;99848.11;1665501;85;21225;-81
2021/12/04 03:17:58;;;;;;;5.53;4.67;;;;;;;2.68;99.22;99853.08;1656369;84;21243;-80
2021/12/04 03:21:06;;;;;;;6.83;5.53;;;;;;;2.64;99.37;99848.47;1618914;87;21378;-80
2021/12/04 03:24:14;;;;;;;6.42;5.65;;;;;;;2.61;99.60;99855.98;1617566;88;21204;-81
2021/12/04 03:27:20;;;;;;;6.28;5.58;;;;;;;2.56;99.86;99859.94;1617036;88;21319;-81
2021/12/04 03:30:37;;;;;;;6.05;5.40;;;;;;;2.54;100.00;99862.40;1615807;88;21335;-80
2021/12/04 03:43:43;;;;;;;8.63;6.72;;;;;;;2.42;100.00;99865.70;1647888;87;21846;-80
2021/12/04 03:46:48;;;;;;;7.65;5.47;;;;;;;2.43;100.00;99859.80;1648170;87;21157;-80
2021/12/04 03:49:53;;;;;;;8.80;6.78;;;;;;;2.44;100.00;99850.21;1633899;88;21304;-81
2021/12/04 03:52:59;;;;;;;6.85;5.67;;;;;;;2.45;100.00;99836.25;1633845;88;21765;-81
2021/12/04 03:56:04;;;;;;;9.43;6.35;;;;;;;2.44;100.00;99845.31;1634211;88;21269;-81
2021/12/04 03:59:09;;;;;;;8.00;6.65;;;;;;;2.43;100.00;99852.56;1634178;88;21174;-81
2021/12/04 04:02:17;;;;;;;7.97;6.58;;;;;;;2.43;100.00;99855.75;1634504;86;21847;-80
2021/12/04 04:05:21;;;;;;;9.63;7.47;;;;;;;2.44;100.00;99850.71;1660951;86;21888;-81
2021/12/04 04:08:27;;;;;;;7.90;6.33;;;;;;;2.46;100.00;99851.45;1660782;86;21812;-80
2021/12/04 04:11:35;;;;;;;6.92;6.17;;;;;;;2.49;100.00;99864.66;1660685;86;21298;-80
2021/12/04 04:14:38;;;;;;;7.03;6.17;;;;;;;2.48;100.00;99858.41;1660797;86;21892;-81
2021/12/04 04:17:45;;;;;;;7.17;6.25;;;;;;;2.50;100.00;99862.34;1660803;86;21938;-81
2021/12/04 04:20:50;;;;;;;7.67;6.40;;;;;;;2.48;100.00;99869.70;1660670;86;21296;-81
2021/12/04 04:23:56;;;;;;;7.05;6.35;;;;;;;2.48;100.00;99877.80;1661076;86;21281;-81
2021/12/04 04:27:02;;;;;;;6.42;5.53;;;;;;;2.47;100.00;99878.80;1659589;86;21190;-81
2021/12/04 04:30:07;;;;;;;9.18;6.42;;;;;;;2.47;100.00;99883.70;1661144;86;21288;-80
2021/12/04 04:33:14;;;;;;;7.90;6.70;;;;;;;2.49;100.00;99882.20;1660494;86;21890;-80
2021/12/04 04:37:14;;;;;;;7.53;6.28;;;;;;;2.52;100.00;99886.84;1658827;86;21363;-81
2021/12/04 05:13:05;;;;;;;8.48;6.58;;;;;;;2.67;98.93;99930.53;1660818;86;21218;-80
2021/12/04 05:19:40;;;;;;;7.70;7.00;;;;;;;2.71;98.60;99934.68;1660532;84;21221;-80
2021/12/04 05:22:35;;;;;;;11.10;7.15;;;;;;;2.73;98.32;99939.94;1659803;86;21417;-81
2021/12/04 05:25:40;;;;;;;8.43;6.78;;;;;;;2.73;98.12;99945.34;1661001;86;21273;-80
2021/12/04 05:28:46;;;;;;;9.33;7.00;;;;;;;2.73;97.87;99942.17;1660917;86;21210;-80
2021/12/04 05:31:52;;;;;;;8.15;6.60;;;;;;;2.70;97.45;99939.73;1657408;85;21206;-81
2021/12/04 05:34:57;;;;;;;10.95;7.03;;;;;;;2.69;97.32;99952.03;1661967;86;21316;-80
2021/12/04 05:38:02;;;;;;;8.83;7.80;;;;;;;2.68;97.30;99942.19;1658343;85;21371;-81
2021/12/04 05:41:08;;;;;;;9.98;7.72;;;;;;;2.65;96.97;99944.69;1662143;86;21331;-80
2021/12/04 05:44:14;;;;;;;8.43;7.33;;;;;;;2.62;96.49;99958.94;1660190;86;21316;-80
2021/12/04 05:47:27;;;;;;;8.48;7.05;;;;;;;2.59;96.54;99952.45;1658959;86;21332;-81
2021/12/04 05:50:57;;;;;;;9.45;7.95;;;;;;;2.61;96.75;99960.79;1618093;88;21701;-80
2021/12/04 05:56:55;;;;;;;9.78;7.87;;;;;;;2.63;96.60;99961.50;1659774;86;21958;-81
2021/12/04 06:00:01;;;;;;;9.75;7.90;;;;;;;2.63;96.48;99968.25;1660229;86;21328;-81
2021/12/04 06:03:06;;;;;;;9.48;7.83;;;;;;;2.61;96.12;99955.39;1659134;84;21894;-81
2021/12/04 06:06:11;;;;;;;10.53;7.53;;;;;;;2.59;96.19;99961.90;1664102;85;21322;-80
2021/12/04 06:09:16;;;;;;;10.03;7.60;;;;;;;2.58;96.31;99969.14;1651252;85;22271;-81
2021/12/04 06:12:21;;;;;;;11.57;8.18;;;;;;;2.59;96.54;99966.83;1641005;87;21914;-81
2021/12/04 06:15:27;;;;;;;11.55;8.55;;;;;;;2.58;96.60;99967.80;1644235;85;21188;-81
2021/12/04 06:18:33;;;;;;;10.80;8.15;;;;;;;2.58;96.71;99976.39;1640571;86;21633;-82
2021/12/04 06:25:01;;;;;;;12.60;8.40;;;;;;;2.62;96.72;99977.34;1657171;86;21241;-81
2021/12/04 06:28:06;;;;;;;11.20;9.08;;;;;;;2.67;96.57;99981.00;1668534;86;21202;-81
2021/12/04 06:31:11;;;;;;;10.55;9.23;;;;;;;2.69;96.52;99992.04;1651063;85;21304;-82
2021/12/04 06:34:16;;;;;;;8.68;7.60;;;;;;;2.73;96.32;100011.05;1652765;86;21197;-82
2021/12/04 06:37:21;;;;;;;10.18;9.00;;;;;;;2.76;96.12;100016.16;1656068;86;21855;-81
2021/12/04 06:40:26;;;;;;;9.75;8.25;;;;;;;2.81;96.09;100023.36;1653278;85;21776;-81
2021/12/04 06:43:31;;;;;;;11.33;8.45;;;;;;;2.88;95.60;100026.41;1635934;87;21605;-81
2021/12/04 06:46:36;;;;;;;14.13;10.58;;;;;;;2.90;94.95;100031.66;1667443;85;21265;-82
2021/12/04 06:49:43;;;;;;;13.35;9.05;;;;;;;2.93;94.62;100034.11;1657159;85;21213;-81
2021/12/04 06:52:49;;;;;;;11.00;9.58;;;;;;;2.97;94.26;100028.80;1665433;86;21802;-81
2021/12/04 06:55:55;;;;;;;14.47;10.28;;;;;;;2.99;94.01;100027.66;1664134;86;21366;-81
2021/12/04 06:59:06;;;;;;;12.82;9.40;;;;;;;3.01;93.75;100031.56;1656785;84;21339;-84
2021/12/04 07:02:09;;;;;;;15.28;10.35;;;;;;;3.05;93.73;100038.41;1658362;84;21804;-82
2021/12/04 07:05:15;;;;;;;15.35;10.60;;;;;;;3.09;93.66;100039.86;1657350;84;21899;-82
2021/12/04 07:08:19;;;;;;;17.25;12.70;;;;;;;3.14;93.65;100034.91;1660079;85;21194;-81
2021/12/04 07:11:25;;;;;;;20.27;11.22;;;;;;;3.16;93.28;100028.89;1667297;86;21234;-82
2021/12/04 07:14:30;;;;;;;19.10;12.40;;;;;;;3.18;92.80;100024.69;1661667;85;21181;-82
2021/12/04 07:17:36;;;;;;;21.60;14.40;;;;;;;3.14;92.50;100034.05;1648403;84;21261;-81
2021/12/04 07:20:45;;;;;;;22.20;15.48;;;;;;;3.15;92.68;100033.91;1664988;86;21221;-81
2021/12/04 07:23:51;;;;;;;24.77;17.37;;;;;;;3.14;92.44;100024.09;1662724;86;22524;-82
2021/12/04 07:26:56;;;;;;;24.60;15.58;;;;;;;3.12;92.33;100025.24;1660757;84;21307;-82
2021/12/04 07:30:02;;;;;;;17.80;12.98;;;;;;;3.12;92.50;100030.14;1663860;86;21294;-83
2021/12/04 07:33:08;;;;;;;21.68;14.60;;;;;;;3.18;92.72;100030.95;1661505;84;21579;-83
2021/12/04 07:36:13;;;;;;;19.55;15.32;;;;;;;3.21;92.47;100024.42;1638302;87;22436;-82
2021/12/04 07:39:18;;;;;;;19.48;14.93;;;;;;;3.15;92.35;100023.09;1654636;86;21364;-81
2021/12/04 07:42:23;;;;;;;20.02;14.25;;;;;;;3.15;92.57;100027.16;1664251;86;21336;-82
2021/12/04 07:45:29;;;;;;;18.15;14.10;;;;;;;3.20;92.91;100035.73;1663747;84;21331;-82
2021/12/04 07:48:35;;;;;;;20.35;15.93;;;;;;;3.26;92.92;100036.53;1667710;84;21311;-82
2021/12/04 07:51:41;;;;;;;23.02;16.20;;;;;;;3.25;92.75;100021.31;1665723;84;21808;-82
2021/12/04 07:54:48;;;;;;;25.10;17.00;;;;;;;3.22;92.63;100018.02;1661712;84;22297;-82
2021/12/04 07:57:56;;;;;;;23.22;16.50;;;;;;;3.20;92.40;100018.17;1660986;84;21370;-83
2021/12/04 08:00:59;;;;;;;20.37;15.18;;;;;;;3.15;92.36;100016.34;1664780;84;21271;-84
2021/12/04 08:04:06;;;;;;;22.42;16.73;;;;;;;3.14;92.57;100006.53;1672351;84;21856;-82
2021/12/04 08:07:11;;;;;;;23.85;16.15;;;;;;;3.13;92.71;100003.47;1674173;85;21295;-82
2021/12/04 08:10:18;;;;;;;22.32;15.45;;;;;;;3.13;92.86;100003.97;1677912;84;21349;-81
2021/12/04 08:13:23;;;;;;;23.47;17.60;;;;;;;3.15;93.44;99988.46;1650621;86;21164;-82
2021/12/04 08:16:28;;;;;;;25.12;17.00;;;;;;;3.18;93.57;99983.64;1663925;84;21860;-82
2021/12/04 08:19:36;;;;;;;21.82;15.80;;;;;;;3.18;93.79;99979.59;1659891;85;21319;-81
2021/12/04 08:22:41;;;;;;;26.25;16.52;;;;;;;3.21;94.00;99965.81;1668354;84;21345;-82
2021/12/04 08:25:47;;;;;;;20.40;15.75;;;;;;;3.23;94.01;99946.24;1666412;84;21406;-82
2021/12/04 08:28:52;;;;;;;22.87;16.50;;;;;;;3.22;93.82;99946.39;1656439;85;21327;-81
2021/12/04 08:31:57;;;;;;;19.70;15.45;;;;;;;3.20;94.04;99943.84;1668350;84;21384;-81
2021/12/04 08:35:02;;;;;;;21.05;16.25;;;;;;;3.15;93.78;99947.92;1664839;86;21222;-81
2021/12/04 08:38:09;;;;;;;21.05;15.60;;;;;;;3.06;94.05;99937.47;1660244;84;21284;-81
2021/12/04 08:41:15;;;;;;;21.77;15.13;;;;;;;2.97;94.18;99928.83;1666351;85;21900;-81
2021/12/04 08:44:21;;;;;;;23.77;16.10;;;;;;;2.87;94.79;99926.56;1658145;86;21368;-81
2021/12/04 08:47:27;;;;;;;20.57;15.10;;;;;;;2.89;95.28;99931.36;1641807;85;21360;-81
2021/12/04 08:50:37;;;;;;;19.35;15.13;;;;;;;2.93;95.48;99932.80;1658543;86;21874;-81
2021/12/04 08:53:42;;;;;;;17.92;14.25;;;;;;;2.92;95.25;99930.59;1662438;85;21332;-81
2021/12/04 08:56:48;;;;;;;23.70;13.53;;;;;;;2.92;95.59;99925.19;1655521;84;21356;-81
2021/12/04 08:59:53;;;;;;;17.62;13.35;;;;;;;2.95;95.90;99918.64;1658616;85;21300;-81
2021/12/04 09:02:59;;;;;;;16.87;12.13;;;;;;;2.93;95.90;99910.68;1661036;85;21347;-82
2021/12/04 09:06:05;;;;;;;16.50;12.60;;;;;;;2.98;96.15;99915.67;1660134;85;21312;-82
2021/12/04 09:09:12;;;;;;;16.12;12.33;;;;;;;3.06;96.36;99917.20;1651472;86;21379;-82
2021/12/04 09:12:17;;;;;;;20.82;14.25;;;;;;;3.15;96.34;99924.45;1648486;86;21977;-82
2021/12/04 09:15:26;;;;;;;19.67;12.85;;;;;;;3.20;95.93;99927.63;1619420;88;21332;-82
2021/12/04 09:18:31;;;;;;;15.88;12.40;;;;;;;3.25;95.78;99925.36;1661918;86;21293;-82
2021/12/04 09:21:37;;;;;;;16.73;12.43;;;;;;;3.31;95.41;99923.94;1660256;86;21911;-82
2021/12/04 09:24:45;;;;;;;16.07;11.60;;;;;;;3.33;95.04;99915.17;1657957;86;21411;-82
2021/12/04 09:34:43;;;;;;;18.20;12.60;;;;;;;3.43;93.87;99927.36;1663434;84;21198;-82
2021/12/04 10:18:38;;;;;;;9.50;7.65;;;;;;;3.04;92.41;99858.38;1659511;86;21272;-82
2021/12/04 10:21:45;;;;;;;10.20;8.00;;;;;;;3.04;92.45;99856.52;1656642;86;21368;-82
2021/12/04 10:34:42;;;;;;;10.88;8.63;;;;;;;3.15;92.56;99843.38;1661251;86;21400;-82
2021/12/04 10:38:03;;;;;;;10.95;8.50;;;;;;;3.16;92.33;99846.95;1659161;86;21245;-82
2021/12/04 10:41:03;;;;;;;10.72;7.83;;;;;;;3.20;92.49;99845.66;1661808;86;21404;-82
2021/12/04 10:44:31;;;;;;;10.03;7.28;;;;;;;3.25;92.40;99851.02;1662171;86;21356;-82
2021/12/04 10:47:36;;;;;;;12.50;8.23;;;;;;;3.26;92.06;99846.47;1662324;85;21586;-82
2021/12/04 10:53:50;;;;;;;10.88;8.20;;;;;;;3.19;91.49;99828.59;1660981;86;21363;-82
2021/12/04 10:57:32;;;;;;;11.45;7.42;;;;;;;3.18;91.37;99835.50;1647522;86;21289;-82
2021/12/04 11:00:22;;;;;;;9.03;7.20;;;;;;;3.18;91.08;99833.64;1661133;86;21752;-82
2021/12/04 11:06:50;;;;;;;9.00;7.25;;;;;;;3.00;90.90;99835.31;1662069;86;21308;-82
2021/12/04 11:20:44;;;;;;;11.35;7.95;;;;;;;3.04;92.21;99809.73;1659357;86;21312;-82
2021/12/04 11:43:02;;;;;;;10.30;7.47;;;;;;;3.03;91.26;99808.88;1686842;85;21256;-82
2021/12/04 11:46:19;;;;;;;9.38;7.45;;;;;;;3.04;91.26;99809.23;1685047;85;21713;-82
2021/12/04 11:49:29;;;;;;;9.78;7.72;;;;;;;2.98;90.71;99808.45;1630646;87;21198;-82
2021/12/04 11:52:34;;;;;;;8.80;7.20;;;;;;;2.92;90.79;99810.87;1653131;87;21902;-82
2021/12/04 11:55:45;;;;;;;11.15;7.20;;;;;;;2.90;91.17;99808.28;1654828;87;21696;-82
2021/12/04 11:58:52;;;;;;;9.10;7.53;;;;;;;2.92;91.17;99805.47;1654798;87;21193;-82
2021/12/04 12:02:04;;;;;;;8.78;6.47;;;;;;;2.86;91.12;99812.25;1654809;87;21359;-81
2021/12/04 12:05:13;;;;;;;11.08;7.17;;;;;;;2.85;91.58;99821.86;1654743;87;21217;-82
2021/12/04 12:08:31;;;;;;;11.25;7.97;;;;;;;2.85;91.43;99823.21;1653997;87;21847;-82
2021/12/04 12:11:36;;;;;;;9.05;7.08;;;;;;;2.82;91.05;99827.03;1652489;87;21327;-81
2021/12/04 12:14:55;;;;;;;10.80;7.83;;;;;;;2.78;91.42;99841.83;1653153;87;21351;-82
2021/12/04 12:17:59;;;;;;;11.05;7.53;;;;;;;2.84;91.94;99849.88;1653978;85;21248;-82
2021/12/04 12:21:20;;;;;;;11.60;8.38;;;;;;;2.89;91.63;99837.66;1653700;87;21917;-82
2021/12/04 12:24:32;;;;;;;9.58;7.80;;;;;;;2.90;91.69;99842.55;1654624;87;21284;-82
2021/12/04 12:27:43;;;;;;;9.95;7.12;;;;;;;2.87;91.70;99833.37;1646905;85;21847;-82
2021/12/04 12:34:11;;;;;;;10.05;8.03;;;;;;;2.86;91.43;99820.36;1654796;87;21214;-82
2021/12/04 12:37:33;;;;;;;11.12;8.43;;;;;;;2.88;91.39;99829.20;1654231;87;21520;-82
2021/12/04 12:40:39;;;;;;;8.98;6.60;;;;;;;2.85;91.28;99820.52;1653684;87;21550;-82
2021/12/04 12:44:07;;;;;;;8.43;6.72;;;;;;;2.80;91.27;99826.33;1652509;87;21331;-82
2021/12/04 12:47:17;;;;;;;15.00;9.93;;;;;;;2.78;91.43;99826.48;1653285;87;21238;-82
2021/12/04 12:50:38;;;;;;;11.57;9.00;;;;;;;2.79;91.69;99826.83;1654651;87;21756;-82
2021/12/04 12:53:53;;;;;;;14.60;10.08;;;;;;;2.88;91.75;99824.30;1652010;87;21376;-82
2021/12/04 12:57:05;;;;;;;17.98;10.30;;;;;;;2.89;91.37;99832.75;1654851;87;21182;-82
2021/12/04 13:14:28;;;;;;;11.40;8.05;;;;;;;2.82;90.95;99827.03;1653625;87;21539;-82
2021/12/04 13:17:39;;;;;;;11.00;7.35;;;;;;;2.74;91.04;99825.04;1653826;85;21221;-82
2021/12/04 13:20:44;;;;;;;10.95;8.20;;;;;;;2.71;91.52;99817.20;1666960;86;21866;-82
2021/12/04 13:23:56;;;;;;;10.05;7.55;;;;;;;2.66;91.74;99816.77;1665748;86;21233;-82
2021/12/04 13:30:19;;;;;;;9.55;7.50;;;;;;;2.58;91.81;99811.19;1614693;87;21776;-82
2021/12/04 13:33:24;;;;;;;9.95;8.35;;;;;;;2.57;92.00;99809.48;1620352;87;21350;-82
2021/12/04 13:36:36;;;;;;;9.68;7.80;;;;;;;2.55;91.94;99812.34;1618204;88;21331;-82
2021/12/04 13:39:42;;;;;;;11.03;7.20;;;;;;;2.48;92.09;99806.26;1619126;88;21343;-82
2021/12/04 13:42:48;;;;;;;11.93;8.03;;;;;;;2.47;92.30;99803.20;1618653;88;21268;-82
2021/12/04 13:45:53;;;;;;;9.55;7.30;;;;;;;2.44;92.52;99808.87;1617755;88;21244;-82
2021/12/04 13:49:07;;;;;;;13.03;7.40;;;;;;;2.40;92.93;99805.61;1618700;88;21291;-82
2021/12/04 13:52:18;;;;;;;13.95;8.18;;;;;;;2.40;93.18;99797.52;1617851;88;21846;-82
2021/12/04 13:55:24;;;;;;;12.90;8.33;;;;;;;2.40;93.36;99810.13;1618735;88;21356;-82
2021/12/04 13:58:29;;;;;;;10.20;6.85;;;;;;;2.37;93.56;99811.27;1617616;88;21335;-82
2021/12/04 14:01:35;;;;;;;12.23;8.90;;;;;;;2.40;93.90;99816.88;1616842;88;21331;-82
2021/12/04 14:04:41;;;;;;;16.55;9.15;;;;;;;2.43;94.07;99810.72;1623976;87;21367;-82
2021/12/04 14:08:06;;;;;;;16.42;10.08;;;;;;;2.50;94.13;99815.09;1620079;88;21752;-82
2021/12/04 14:11:11;;;;;;;17.12;11.38;;;;;;;2.57;94.04;99818.94;1629035;88;21391;-82
2021/12/04 14:14:22;;;;;;;18.20;11.78;;;;;;;2.63;93.81;99806.73;1627526;88;21335;-81
2021/12/04 14:17:28;;;;;;;15.83;10.15;;;;;;;2.66;93.54;99816.77;1626679;87;21228;-82
2021/12/04 14:20:32;;;;;;;12.98;8.33;;;;;;;2.70;93.29;99810.09;1643516;87;21347;-82
2021/12/04 14:23:39;;;;;;;14.28;8.90;;;;;;;2.71;93.04;99810.45;1643269;87;21924;-82
2021/12/04 14:26:44;;;;;;;12.80;8.80;;;;;;;2.69;92.88;99800.30;1643860;87;22541;-82
2021/12/04 14:29:56;;;;;;;14.35;10.00;;;;;;;2.67;92.66;99800.06;1663566;84;21347;-82
2021/12/04 14:33:03;;;;;;;10.72;8.53;;;;;;;2.64;92.50;99803.91;1673117;85;21339;-82
2021/12/04 14:36:11;;;;;;;10.48;8.30;;;;;;;2.61;92.28;99806.88;1644179;85;21883;-81
2021/12/04 14:39:18;;;;;;;13.78;9.23;;;;;;;2.57;92.43;99801.39;1658834;86;21312;-82
2021/12/04 14:42:28;;;;;;;12.37;8.85;;;;;;;2.56;92.70;99796.98;1653465;85;21915;-82
2021/12/04 14:45:36;;;;;;;14.68;9.35;;;;;;;2.54;92.94;99797.59;1657396;85;21704;-83
2021/12/04 14:48:45;;;;;;;12.95;9.38;;;;;;;2.55;93.30;99793.94;1656275;85;21220;-82
2021/12/04 14:51:50;;;;;;;15.40;9.00;;;;;;;2.52;93.26;99794.20;1643665;87;21684;-82
2021/12/04 14:54:56;;;;;;;10.95;8.35;;;;;;;2.54;93.25;99798.48;1660322;86;21232;-82
2021/12/04 14:58:03;;;;;;;13.20;7.37;;;;;;;2.55;93.22;99800.19;1653438;86;21834;-82
2021/12/04 15:01:19;;;;;;;13.40;8.68;;;;;;;2.52;93.22;99798.25;1646685;86;21300;-82
2021/12/04 15:04:24;;;;;;;11.93;9.30;;;;;;;2.45;93.30;99795.75;1646028;87;21887;-82
2021/12/04 15:07:33;;;;;;;12.53;8.35;;;;;;;2.40;93.59;99796.63;1641372;87;21300;-82
2021/12/04 15:10:38;;;;;;;11.88;8.10;;;;;;;2.42;94.02;99794.67;1682031;84;21792;-82
2021/12/04 15:13:51;;;;;;;12.40;8.98;;;;;;;2.42;94.10;99794.17;1657282;86;21263;-82
2021/12/04 15:16:59;;;;;;;11.45;8.60;;;;;;;2.44;94.05;99788.13;1664574;85;21209;-82
2021/12/04 15:20:19;;;;;;;14.73;9.75;;;;;;;2.42;94.07;99783.38;1653167;86;21295;-82
2021/12/04 15:23:29;;;;;;;14.85;9.60;;;;;;;2.36;94.08;99784.42;1657673;86;21841;-82
2021/12/04 15:26:34;;;;;;;17.87;10.45;;;;;;;2.33;94.15;99783.34;1646372;86;21720;-82
2021/12/04 15:29:42;;;;;;;13.43;9.85;;;;;;;2.32;94.31;99782.98;1654502;86;21302;-82
2021/12/04 15:32:47;;;;;;;17.45;10.82;;;;;;;2.32;94.30;99792.44;1646643;86;21874;-82
2021/12/04 15:35:54;;;;;;;13.75;9.88;;;;;;;2.30;94.41;99790.70;1644916;86;21334;-82
2021/12/04 15:39:05;;;;;;;15.38;9.50;;;;;;;2.32;94.26;99789.73;1649423;86;21856;-82
2021/12/04 15:55:28;;;;;;;11.93;8.00;;;;;;;2.32;94.04;99800.03;1633615;88;21335;-82
2021/12/04 15:58:36;;;;;;;9.13;7.45;;;;;;;2.34;93.91;99795.84;1640799;87;21327;-82
2021/12/04 16:01:42;;;;;;;11.48;8.80;;;;;;;2.32;93.75;99800.53;1639861;87;21315;-82
2021/12/04 16:04:50;;;;;;;9.43;7.62;;;;;;;2.26;93.69;99798.73;1643895;86;22005;-82
2021/12/04 16:07:57;;;;;;;10.23;7.47;;;;;;;2.25;93.74;99792.11;1653043;86;21288;-82
2021/12/04 16:11:02;;;;;;;10.00;8.10;;;;;;;2.21;93.74;99790.20;1662004;86;21142;-82
2021/12/04 16:14:10;;;;;;;9.78;7.90;;;;;;;2.13;93.97;99781.92;1651810;86;21849;-82
2021/12/04 16:17:16;;;;;;;10.80;7.45;;;;;;;2.12;94.26;99778.86;1633910;85;21268;-82
2021/12/04 16:20:22;;;;;;;9.75;7.62;;;;;;;2.09;94.47;99780.47;1649842;86;21868;-82
2021/12/04 16:23:31;;;;;;;9.70;7.80;;;;;;;2.07;94.66;99770.33;1654613;86;21788;-82
2021/12/04 16:26:36;;;;;;;11.22;8.33;;;;;;;1.99;94.79;99776.88;1660020;85;21714;-82
2021/12/04 16:29:54;;;;;;;12.60;8.98;;;;;;;1.95;95.09;99782.18;1665932;86;21848;-82
2021/12/04 16:32:57;;;;;;;11.73;8.35;;;;;;;1.92;95.26;99776.55;1653245;86;21324;-82
2021/12/04 16:39:09;;;;;;;12.55;8.85;;;;;;;1.91;95.81;99780.23;1656242;86;21194;-82
2021/12/04 16:42:14;;;;;;;11.50;8.90;;;;;;;1.93;95.75;99778.28;1651027;86;21200;-82
2021/12/04 16:45:21;;;;;;;10.20;7.70;;;;;;;1.90;95.68;99774.48;1653942;86;21351;-82
2021/12/04 16:48:33;;;;;;;12.50;8.53;;;;;;;1.89;95.68;99778.68;1654741;85;21391;-82
2021/12/04 16:58:04;;;;;;;12.33;9.03;;;;;;;1.84;95.71;99762.05;1603120;85;21494;-82
2021/12/04 17:01:06;;;;;;;11.18;8.10;;;;;;;1.85;95.51;99765.95;1663327;85;21265;-82
2021/12/04 17:04:12;;;;;;;11.95;8.00;;;;;;;1.86;95.57;99764.10;1662973;86;21186;-82
2021/12/04 17:07:17;;;;;;;10.63;7.87;;;;;;;1.85;95.65;99758.36;1653396;86;21246;-82
2021/12/04 17:10:22;;;;;;;9.98;7.28;;;;;;;1.85;95.70;99757.86;1661097;86;21360;-82
2021/12/04 17:13:27;;;;;;;13.18;8.00;;;;;;;1.87;95.73;99755.87;1653870;86;21295;-82
2021/12/04 17:16:33;;;;;;;9.95;7.78;;;;;;;1.91;95.61;99749.72;1647679;85;21866;-82
2021/12/04 17:19:39;;;;;;;10.18;7.80;;;;;;;1.94;95.64;99751.66;1651834;86;21312;-82
2021/12/04 17:22:46;;;;;;;10.95;7.72;;;;;;;1.98;95.51;99750.91;1654075;86;21308;-82
2021/12/04 17:25:51;;;;;;;9.83;7.70;;;;;;;1.99;95.27;99745.86;1654066;86;21641;-82
2021/12/04 17:28:57;;;;;;;9.43;6.60;;;;;;;1.98;95.18;99749.55;1653556;86;21277;-82
2021/12/04 17:32:02;;;;;;;10.60;7.78;;;;;;;1.99;95.25;99744.52;1650191;85;21336;-82
2021/12/04 17:35:07;;;;;;;11.43;7.55;;;;;;;2.01;95.07;99750.61;1652834;86;21352;-83
2021/12/04 17:38:12;;;;;;;13.78;8.73;;;;;;;1.97;94.87;99745.12;1653270;86;21377;-83
2021/12/04 17:41:31;;;;;;;10.18;8.23;;;;;;;1.98;95.16;99752.25;1651012;85;21222;-82
2021/12/04 17:44:34;;;;;;;12.70;8.60;;;;;;;1.98;95.26;99746.86;1651262;86;21770;-82
2021/12/04 17:47:47;;;;;;;11.53;8.20;;;;;;;1.95;95.20;99745.27;1650393;86;21312;-82
2021/12/04 17:50:49;;;;;;;11.18;8.38;;;;;;;1.94;95.22;99748.11;1654082;86;21296;-82
2021/12/04 17:53:55;;;;;;;12.63;8.25;;;;;;;1.92;95.34;99740.63;1657344;86;21347;-82
2021/12/04 17:57:00;;;;;;;16.42;8.63;;;;;;;1.89;95.53;99744.97;1649767;86;21253;-82
2021/12/04 18:00:06;;;;;;;11.03;7.78;;;;;;;1.87;95.64;99741.53;1653988;86;21343;-82